Terminal Aerodrome Forecast
Issued by NWS Newport/Morehead City, NC

Home | Current Version | Previous Version | Text Only | Print | Product List | Glossary On
Versions: 1 2 3 4 5 6 7 8 9 10 11 12 13
581
FTUS42 KMHX 240531
TAFEWN
TAF
KEWN 240531Z 2406/2506 21008KT P6SM SCT010
     FM241500 22010KT P6SM BKN025
     FM241800 21010G18KT P6SM VCTS SCT025CB BKN100
     FM250000 21006KT P6SM VCSH BKN250=

USA.gov is the U.S. government's official web portal to all federal, state and local government web resources and services.